Time;durP1;ratioP1;P1;durP2;ratioP2;P2;SDS_P1;SDS_P2;PMS_P1;PMS_P2;Temp;Humidity;BMP_temperature;BMP_pressure;BME280_temperature;BME280_humidity;BME280_pressure;Samples;Min_cycle;Max_cycle;Signal;HPM_P1;HPM_P2
2023/03/07 00:00:33;;;;;;;;;;;;;;;4.36;100.00;99771.66;10374030;28;19925;-61
2023/03/07 00:05:35;;;;;;;;;;;;;;;4.39;100.00;99759.38;10380838;28;19926;-62
2023/03/07 00:10:37;;;;;;;;;;;;;;;4.35;100.00;99770.78;10382387;28;19944;-61
2023/03/07 00:15:39;;;;;;;;;;;;;;;4.32;100.00;99764.91;10382085;28;19972;-62
2023/03/07 00:20:42;;;;;;;;;;;;;;;4.15;100.00;99760.53;10380366;28;19988;-61
2023/03/07 00:25:44;;;;;;;;;;;;;;;4.17;100.00;99766.50;10380192;28;20320;-61
2023/03/07 00:30:47;;;;;;;;;;;;;;;4.31;100.00;99758.91;10380489;28;19925;-61
2023/03/07 00:35:56;;;;;;;;;;;;;;;4.19;100.00;99762.94;10380845;28;20439;-62
2023/03/07 00:40:59;;;;;;;;;;;;;;;4.24;100.00;99760.97;10380101;28;19957;-62
2023/03/07 00:46:01;;;;;;;;;;;;;;;4.33;100.00;99757.06;10378652;28;19925;-62
2023/03/07 00:51:04;;;;;;;;;;;;;;;4.22;100.00;99754.16;10379304;28;19925;-61
2023/03/07 00:56:08;;;;;;;;;;;;;;;4.31;100.00;99748.53;10380704;28;19926;-62
2023/03/07 01:01:12;;;;;;;;;;;;;;;4.44;100.00;99739.25;10361754;28;19972;-62
2023/03/07 01:06:15;;;;;;;;;;;;;;;4.33;100.00;99744.13;10359736;28;20403;-62
2023/03/07 01:11:17;;;;;;;;;;;;;;;4.49;100.00;99746.81;10362606;28;19929;-62
2023/03/07 01:16:20;;;;;;;;;;;;;;;4.17;100.00;99740.59;10377628;28;20292;-61
2023/03/07 01:21:23;;;;;;;;;;;;;;;4.35;100.00;99739.69;10378565;28;19964;-62
2023/03/07 01:26:26;;;;;;;;;;;;;;;4.26;100.00;99737.56;10378098;28;19934;-62
2023/03/07 01:31:29;;;;;;;;;;;;;;;4.33;100.00;99730.34;10378165;28;19933;-62
2023/03/07 01:36:32;;;;;;;;;;;;;;;4.25;100.00;99739.31;10377279;28;19929;-62
2023/03/07 01:41:35;;;;;;;;;;;;;;;4.26;100.00;99735.81;10361452;28;19969;-62
2023/03/07 01:46:46;;;;;;;;;;;;;;;4.24;100.00;99718.66;10375714;28;20281;-62
2023/03/07 01:52:08;;;;;;;;;;;;;;;4.41;100.00;99710.91;10377988;28;19934;-62
2023/03/07 01:57:11;;;;;;;;;;;;;;;4.36;100.00;99707.69;10376340;28;20332;-62
2023/03/07 02:02:15;;;;;;;;;;;;;;;4.51;100.00;99698.31;10360152;28;20418;-62
2023/03/07 02:07:18;;;;;;;;;;;;;;;4.35;100.00;99693.03;10358925;28;20016;-62
2023/03/07 02:12:20;;;;;;;;;;;;;;;4.14;100.00;99678.56;10373962;28;19926;-62
2023/03/07 02:17:24;;;;;;;;;;;;;;;4.13;100.00;99679.47;10376922;28;19932;-62
2023/03/07 02:22:26;;;;;;;;;;;;;;;4.23;100.00;99676.34;10358707;28;19926;-62
2023/03/07 02:27:29;;;;;;;;;;;;;;;4.13;100.00;99674.28;10374747;28;19957;-62
2023/03/07 02:32:31;;;;;;;;;;;;;;;4.15;100.00;99659.50;10375418;28;19926;-62
2023/03/07 02:37:34;;;;;;;;;;;;;;;4.11;100.00;99666.59;10375483;28;19930;-62
2023/03/07 02:42:37;;;;;;;;;;;;;;;4.10;100.00;99664.91;10356484;28;19925;-62
2023/03/07 02:47:39;;;;;;;;;;;;;;;4.21;100.00;99664.41;10335241;28;19945;-62
2023/03/07 02:52:42;;;;;;;;;;;;;;;4.25;100.00;99659.00;10335733;28;19926;-61
2023/03/07 02:57:44;;;;;;;;;;;;;;;4.25;100.00;99648.63;10348538;23;20296;-65
2023/03/07 03:02:46;;;;;;;;;;;;;;;4.13;100.00;99658.75;10372546;28;19941;-65
2023/03/07 03:07:48;;;;;;;;;;;;;;;4.31;100.00;99650.06;10357702;28;19930;-65
2023/03/07 03:12:50;;;;;;;;;;;;;;;4.22;100.00;99651.38;10358457;28;19976;-65
2023/03/07 03:17:53;;;;;;;;;;;;;;;4.33;100.00;99648.25;10374573;28;20368;-66
2023/03/07 03:22:55;;;;;;;;;;;;;;;4.28;100.00;99648.47;10356864;28;20380;-65
2023/03/07 03:27:57;;;;;;;;;;;;;;;4.15;100.00;99655.16;10416240;28;19929;-65
2023/03/07 03:32:59;;;;;;;;;;;;;;;4.31;100.00;99644.88;10414942;28;19952;-65
2023/03/07 03:38:02;;;;;;;;;;;;;;;4.16;100.00;99641.31;10419618;28;19987;-65
2023/03/07 03:43:04;;;;;;;;;;;;;;;4.15;100.00;99638.78;10424337;28;19924;-66
2023/03/07 03:48:06;;;;;;;;;;;;;;;4.08;100.00;99627.88;10423496;28;19932;-66
2023/03/07 03:53:08;;;;;;;;;;;;;;;4.37;100.00;99613.50;10423539;28;19979;-66
2023/03/07 03:58:10;;;;;;;;;;;;;;;4.13;100.00;99625.06;10423254;28;19975;-65
2023/03/07 04:03:12;;;;;;;;;;;;;;;4.17;100.00;99621.41;10422572;28;19925;-66
2023/03/07 04:08:15;;;;;;;;;;;;;;;4.10;100.00;99615.69;10423557;28;19951;-65
2023/03/07 04:13:17;;;;;;;;;;;;;;;4.31;100.00;99623.34;10422747;28;19925;-66
2023/03/07 04:18:20;;;;;;;;;;;;;;;4.04;100.00;99614.25;10394147;28;19972;-66
2023/03/07 04:23:23;;;;;;;;;;;;;;;4.12;100.00;99608.72;10369906;28;20434;-65
2023/03/07 04:28:26;;;;;;;;;;;;;;;4.33;100.00;99608.53;10404714;28;20335;-65
2023/03/07 04:33:28;;;;;;;;;;;;;;;4.36;100.00;99601.44;10404248;28;19948;-65
2023/03/07 04:38:30;;;;;;;;;;;;;;;4.22;100.00;99606.47;10421771;28;20339;-65
2023/03/07 04:43:33;;;;;;;;;;;;;;;4.18;100.00;99608.38;10421181;28;19925;-65
2023/03/07 04:48:35;;;;;;;;;;;;;;;3.63;100.00;99613.66;10420992;28;19926;-65
2023/03/07 04:53:37;;;;;;;;;;;;;;;3.64;100.00;99602.41;10421234;28;19925;-65
2023/03/07 04:58:40;;;;;;;;;;;;;;;3.49;100.00;99596.22;10421010;28;19955;-66
2023/03/07 05:03:42;;;;;;;;;;;;;;;3.25;100.00;99588.69;10420482;28;19932;-66
2023/03/07 05:08:44;;;;;;;;;;;;;;;3.51;100.00;99579.72;10420710;28;20368;-65
2023/03/07 05:13:46;;;;;;;;;;;;;;;3.45;100.00;99576.56;10420435;28;20372;-65
2023/03/07 05:18:48;;;;;;;;;;;;;;;3.57;100.00;99573.38;10420709;28;19925;-65
2023/03/07 05:23:50;;;;;;;;;;;;;;;3.55;100.00;99562.28;10400949;28;19976;-65
2023/03/07 05:28:53;;;;;;;;;;;;;;;3.52;100.00;99560.66;10420771;28;19925;-65
2023/03/07 05:33:55;;;;;;;;;;;;;;;3.45;100.00;99569.63;10419781;28;20368;-65
2023/03/07 05:38:57;;;;;;;;;;;;;;;3.63;100.00;99565.34;10419153;28;19929;-66
2023/03/07 05:43:59;;;;;;;;;;;;;;;3.40;100.00;99570.78;10415962;28;19933;-66
2023/03/07 05:49:02;;;;;;;;;;;;;;;3.29;100.00;99574.69;10419952;28;19925;-66
2023/03/07 05:54:04;;;;;;;;;;;;;;;3.09;100.00;99578.22;10419123;28;19979;-65
2023/03/07 05:59:06;;;;;;;;;;;;;;;3.26;100.00;99571.41;10401257;28;19925;-65
2023/03/07 06:04:09;;;;;;;;;;;;;;;3.07;100.00;99579.19;10401267;28;19925;-65
2023/03/07 06:09:11;;;;;;;;;;;;;;;3.00;100.00;99581.22;10418442;28;19933;-65
2023/03/07 06:14:14;;;;;;;;;;;;;;;3.29;100.00;99579.84;10417943;28;19932;-64
2023/03/07 06:19:16;;;;;;;;;;;;;;;3.15;100.00;99569.31;10418050;28;19925;-64
2023/03/07 06:24:18;;;;;;;;;;;;;;;3.01;100.00;99569.09;10418266;28;19940;-65
2023/03/07 06:29:20;;;;;;;;;;;;;;;2.85;100.00;99572.41;10418177;28;19929;-64
2023/03/07 06:34:22;;;;;;;;;;;;;;;3.26;100.00;99576.56;10418024;28;19929;-65
2023/03/07 06:39:25;;;;;;;;;;;;;;;3.13;100.00;99573.75;10417848;28;19925;-64
2023/03/07 06:44:28;;;;;;;;;;;;;;;3.12;100.00;99578.06;10416912;28;20354;-65
2023/03/07 06:49:30;;;;;;;;;;;;;;;3.02;100.00;99587.16;10417381;28;19991;-64
2023/03/07 06:54:32;;;;;;;;;;;;;;;3.11;100.00;99594.50;10417324;28;19929;-65
2023/03/07 06:59:35;;;;;;;;;;;;;;;2.89;100.00;99583.44;10416341;28;19925;-61
2023/03/07 07:04:37;;;;;;;;;;;;;;;2.92;100.00;99598.81;10414199;28;19987;-62
2023/03/07 07:09:39;;;;;;;;;;;;;;;2.66;100.00;99605.16;10414482;28;19925;-61
2023/03/07 07:14:41;;;;;;;;;;;;;;;2.86;100.00;99610.28;10415556;28;19967;-62
2023/03/07 07:19:44;;;;;;;;;;;;;;;2.55;100.00;99613.34;10417526;28;19932;-61
2023/03/07 07:24:46;;;;;;;;;;;;;;;2.21;100.00;99610.47;10397338;28;19929;-61
2023/03/07 07:29:48;;;;;;;;;;;;;;;2.62;100.00;99616.53;10415577;28;19925;-61
2023/03/07 07:34:50;;;;;;;;;;;;;;;2.38;100.00;99612.31;10415549;28;19948;-61
2023/03/07 07:39:52;;;;;;;;;;;;;;;2.47;100.00;99621.47;10413823;28;20307;-62
2023/03/07 07:44:55;;;;;;;;;;;;;;;2.58;100.00;99615.81;10414471;28;20330;-62
2023/03/07 07:49:57;;;;;;;;;;;;;;;2.67;100.00;99620.56;10415781;28;19979;-61
2023/03/07 07:54:59;;;;;;;;;;;;;;;2.37;100.00;99633.91;10412841;28;19929;-61
2023/03/07 08:00:03;;;;;;;;;;;;;;;2.68;100.00;99632.59;10398026;28;19929;-61
2023/03/07 08:05:06;;;;;;;;;;;;;;;2.71;100.00;99636.81;10395499;28;19925;-61
2023/03/07 08:10:09;;;;;;;;;;;;;;;2.30;100.00;99640.22;10415520;28;19929;-61
2023/03/07 08:15:11;;;;;;;;;;;;;;;2.36;100.00;99639.97;10393707;28;19929;-62
2023/03/07 08:20:13;;;;;;;;;;;;;;;2.37;100.00;99651.13;10388422;28;19971;-61
2023/03/07 08:25:17;;;;;;;;;;;;;;;2.20;100.00;99660.44;10416343;28;20277;-62
2023/03/07 08:30:23;;;;;;;;;;;;;;;2.42;100.00;99654.38;10419887;28;19925;-61
2023/03/07 08:35:26;;;;;;;;;;;;;;;2.29;100.00;99666.16;10420960;28;19925;-62
2023/03/07 08:40:28;;;;;;;;;;;;;;;2.39;100.00;99657.09;10399964;28;19925;-62
2023/03/07 08:45:31;;;;;;;;;;;;;;;2.79;100.00;99663.13;10421715;28;19929;-62
2023/03/07 08:50:33;;;;;;;;;;;;;;;2.62;100.00;99655.28;10421949;28;19925;-62
2023/03/07 08:55:35;;;;;;;;;;;;;;;2.86;100.00;99651.66;10421175;28;19927;-62
2023/03/07 09:00:37;;;;;;;;;;;;;;;2.92;100.00;99659.09;10420938;28;19925;-61
2023/03/07 09:05:40;;;;;;;;;;;;;;;2.97;100.00;99651.16;10421423;28;19925;-62
2023/03/07 09:10:42;;;;;;;;;;;;;;;2.76;100.00;99648.63;10420706;28;19929;-61
2023/03/07 09:15:44;;;;;;;;;;;;;;;3.16;100.00;99649.44;10421022;28;19925;-62
2023/03/07 09:20:46;;;;;;;;;;;;;;;2.77;100.00;99647.72;10420977;28;19929;-62
2023/03/07 09:25:48;;;;;;;;;;;;;;;3.08;100.00;99650.69;10420075;28;19932;-62
2023/03/07 09:30:51;;;;;;;;;;;;;;;3.28;100.00;99648.03;10420481;28;19929;-61
2023/03/07 09:35:53;;;;;;;;;;;;;;;3.23;100.00;99660.34;10419698;28;19932;-62
2023/03/07 09:40:55;;;;;;;;;;;;;;;3.31;100.00;99655.66;10420169;28;19925;-62
2023/03/07 09:46:00;;;;;;;;;;;;;;;3.39;100.00;99651.88;10401842;28;19991;-62
2023/03/07 09:51:10;;;;;;;;;;;;;;;3.17;100.00;99651.09;10419751;28;19961;-62
2023/03/07 09:56:15;;;;;;;;;;;;;;;3.61;100.00;99660.31;10401981;28;19925;-62
2023/03/07 10:01:19;;;;;;;;;;;;;;;3.27;100.00;99656.69;10418731;28;20005;-63
2023/03/07 10:06:24;;;;;;;;;;;;;;;3.66;100.00;99667.88;10401548;28;19929;-63
2023/03/07 10:11:26;;;;;;;;;;;;;;;3.13;100.00;99664.25;10400833;28;19925;-62
2023/03/07 10:16:34;;;;;;;;;;;;;;;3.96;100.00;99665.59;10418012;28;20372;-63
2023/03/07 10:21:43;;;;;;;;;;;;;;;3.06;100.00;99662.84;10418551;28;19925;-63
2023/03/07 10:26:48;;;;;;;;;;;;;;;4.35;100.00;99650.75;10418209;28;19929;-62
2023/03/07 10:31:53;;;;;;;;;;;;;;;3.61;100.00;99673.25;10417434;28;20376;-62
2023/03/07 10:36:56;;;;;;;;;;;;;;;3.53;100.00;99670.19;10399610;28;20020;-62
2023/03/07 10:42:10;;;;;;;;;;;;;;;3.32;100.00;99672.03;10417858;28;19932;-62
2023/03/07 10:47:30;;;;;;;;;;;;;;;3.37;100.00;99664.88;10399292;28;19925;-62
2023/03/07 10:52:38;;;;;;;;;;;;;;;3.44;100.00;99665.44;10416702;28;19933;-62
2023/03/07 10:57:40;;;;;;;;;;;;;;;4.41;100.00;99651.28;10399862;28;19971;-62
2023/03/07 11:02:45;;;;;;;;;;;;;;;4.48;100.00;99654.41;10416243;28;19925;-62
2023/03/07 11:07:48;;;;;;;;;;;;;;;4.15;100.00;99655.16;10416863;28;19932;-62
2023/03/07 11:12:50;;;;;;;;;;;;;;;4.07;100.00;99660.72;10398429;28;20306;-62
2023/03/07 11:17:52;;;;;;;;;;;;;;;4.01;100.00;99660.19;10416606;28;19925;-63
2023/03/07 11:23:13;;;;;;;;;;;;;;;4.51;100.00;99659.44;10414473;28;19929;-63
2023/03/07 11:28:21;;;;;;;;;;;;;;;4.11;100.00;99666.59;10415485;28;19925;-63
2023/03/07 11:33:23;;;;;;;;;;;;;;;4.34;100.00;99657.69;10374729;28;20396;-63
2023/03/07 11:38:36;;;;;;;;;;;;;;;4.53;100.00;99659.38;10374815;28;20392;-63
2023/03/07 11:43:40;;;;;;;;;;;;;;;4.37;100.00;99659.28;10396178;28;19980;-62
2023/03/07 11:49:01;;;;;;;;;;;;;;;3.99;100.00;99656.84;10413676;28;19929;-64
2023/03/07 11:54:03;;;;;;;;;;;;;;;4.00;100.00;99661.94;10413906;28;19948;-64
2023/03/07 11:59:16;;;;;;;;;;;;;;;3.85;100.00;99650.56;10418437;28;20368;-64
2023/03/07 12:04:25;;;;;;;;;;;;;;;4.57;100.00;99659.16;10420862;28;19925;-64
2023/03/07 12:09:39;;;;;;;;;;;;;;;4.61;100.00;99655.47;10403789;28;19931;-64
2023/03/07 12:15:14;;;;;;;;;;;;;;;4.33;100.00;99653.41;10405970;28;19933;-63
2023/03/07 12:20:17;;;;;;;;;;;;;;;4.23;100.00;99644.44;10400539;28;20499;-64
2023/03/07 12:25:29;;;;;;;;;;;;;;;4.22;100.00;99651.38;10405618;28;20004;-63
2023/03/07 12:30:49;;;;;;;;;;;;;;;4.25;100.00;99659.00;10405422;28;19933;-64
2023/03/07 12:35:53;;;;;;;;;;;;;;;3.83;100.00;99665.34;10404489;28;19929;-63
2023/03/07 12:40:58;;;;;;;;;;;;;;;4.15;100.00;99644.78;10421863;28;19925;-63
2023/03/07 12:46:00;;;;;;;;;;;;;;;4.08;100.00;99651.19;10404069;28;19995;-63
2023/03/07 12:51:07;;;;;;;;;;;;;;;4.38;100.00;99658.38;10422094;28;19929;-63
2023/03/07 12:56:29;;;;;;;;;;;;;;;5.01;100.00;99656.00;10421896;28;19925;-63
2023/03/07 13:01:31;;;;;;;;;;;;;;;4.05;100.00;99652.19;10420885;28;19982;-63
2023/03/07 13:06:37;;;;;;;;;;;;;;;3.99;100.00;99652.50;10420926;28;19925;-63
2023/03/07 13:11:59;;;;;;;;;;;;;;;4.20;100.00;99655.81;10403424;28;19976;-64
2023/03/07 13:17:01;;;;;;;;;;;;;;;4.04;100.00;99676.41;10420416;28;20507;-63
2023/03/07 13:22:23;;;;;;;;;;;;;;;2.92;100.00;99678.97;10420981;28;19925;-63
2023/03/07 13:27:43;;;;;;;;;;;;;;;3.04;100.00;99677.59;10399833;28;19925;-64
2023/03/07 13:32:45;;;;;;;;;;;;;;;2.95;100.00;99691.75;10402363;28;20304;-64
2023/03/07 13:37:47;;;;;;;;;;;;;;;3.35;100.00;99684.81;10420384;28;19925;-64
2023/03/07 13:42:50;;;;;;;;;;;;;;;3.25;100.00;99689.56;10420149;28;19932;-64
2023/03/07 13:47:53;;;;;;;;;;;;;;;3.30;100.00;99691.97;10419967;28;20001;-64
2023/03/07 13:52:55;;;;;;;;;;;;;;;3.21;100.00;99697.53;10419747;28;19932;-64
2023/03/07 13:57:58;;;;;;;;;;;;;;;3.58;100.00;99701.91;10418981;28;19995;-64
2023/03/07 14:03:00;;;;;;;;;;;;;;;3.66;100.00;99699.78;10401140;28;20368;-64
2023/03/07 14:08:02;;;;;;;;;;;;;;;3.56;100.00;99705.47;10419241;28;19935;-63
2023/03/07 14:13:10;;;;;;;;;;;;;;;3.25;100.00;99707.69;10418833;28;19940;-64
2023/03/07 14:18:28;;;;;;;;;;;;;;;3.27;100.00;99705.84;10418009;28;20384;-63
2023/03/07 14:23:50;;;;;;;;;;;;;;;3.40;100.00;99700.16;10400351;28;19951;-63
2023/03/07 14:28:59;;;;;;;;;;;;;;;3.84;100.00;99716.22;10418341;28;19933;-64
2023/03/07 14:34:04;;;;;;;;;;;;;;;3.66;100.00;99711.88;10399930;28;19925;-64
2023/03/07 14:39:09;;;;;;;;;;;;;;;3.67;100.00;99711.81;10400227;28;19975;-64
2023/03/07 14:44:27;;;;;;;;;;;;;;;3.86;100.00;99716.13;10400317;28;19932;-64
2023/03/07 14:49:32;;;;;;;;;;;;;;;4.00;100.00;99715.47;10417587;28;19934;-64
2023/03/07 14:54:34;;;;;;;;;;;;;;;3.54;100.00;99727.06;10417298;28;19932;-63
2023/03/07 14:59:36;;;;;;;;;;;;;;;3.59;100.00;99734.63;10399361;28;20368;-64
2023/03/07 15:04:39;;;;;;;;;;;;;;;3.40;100.00;99726.84;10416951;28;19926;-64
2023/03/07 15:09:42;;;;;;;;;;;;;;;3.05;100.00;99729.25;10416917;28;19932;-64
2023/03/07 15:32:35;;;;;;;;;;;;;;;2.43;100.00;99733.56;10422165;28;19925;-64
2023/03/07 15:37:58;;;;;;;;;;;;;;;2.44;100.00;99735.25;10409352;28;19929;-65
2023/03/07 15:43:03;;;;;;;;;;;;;;;2.57;100.00;99746.78;10361424;28;20388;-65
2023/03/07 15:48:21;;;;;;;;;;;;;;;3.02;100.00;99739.72;10414796;28;19926;-66
2023/03/07 15:53:26;;;;;;;;;;;;;;;2.95;100.00;99736.56;10415629;28;19983;-64
2023/03/07 15:58:28;;;;;;;;;;;;;;;2.72;100.00;99747.88;10438645;28;19925;-65
2023/03/07 16:03:30;;;;;;;;;;;;;;;2.40;100.00;99749.19;10456801;28;19932;-65
2023/03/07 16:08:33;;;;;;;;;;;;;;;2.86;100.00;99752.47;10456214;28;19925;-65
2023/03/07 16:13:39;;;;;;;;;;;;;;;2.47;100.00;99755.81;10455683;28;19931;-65
2023/03/07 16:18:41;;;;;;;;;;;;;;;2.85;100.00;99752.53;10402453;28;19925;-65
2023/03/07 16:23:44;;;;;;;;;;;;;;;2.65;100.00;99759.38;10397019;28;19929;-65
2023/03/07 16:28:46;;;;;;;;;;;;;;;2.35;100.00;99764.03;10414811;28;19932;-64
2023/03/07 16:33:48;;;;;;;;;;;;;;;2.64;100.00;99749.94;10437457;28;19929;-64
2023/03/07 16:38:51;;;;;;;;;;;;;;;2.16;100.00;99761.34;10454755;28;20330;-65
2023/03/07 16:43:54;;;;;;;;;;;;;;;2.16;100.00;99751.00;10455888;28;19936;-65
2023/03/07 16:48:56;;;;;;;;;;;;;;;2.31;100.00;99755.56;10445256;28;19925;-65
2023/03/07 16:53:59;;;;;;;;;;;;;;;2.08;100.00;99769.38;10421161;28;19925;-65
2023/03/07 16:59:01;;;;;;;;;;;;;;;2.06;100.00;99771.19;10443372;28;19925;-65
2023/03/07 17:04:03;;;;;;;;;;;;;;;2.17;100.00;99771.63;10428237;28;19928;-65
2023/03/07 17:09:06;;;;;;;;;;;;;;;1.77;100.00;99780.88;10444661;28;19981;-65
2023/03/07 17:14:08;;;;;;;;;;;;;;;1.86;100.00;99796.00;10444600;28;19924;-65
2023/03/07 17:19:23;;;;;;;;;;;;;;;1.87;100.00;99799.44;10444346;28;19924;-65
2023/03/07 17:24:28;;;;;;;;;;;;;;;1.90;100.00;99807.09;10461959;28;19931;-65
2023/03/07 17:29:33;;;;;;;;;;;;;;;1.77;100.00;99811.84;10460496;28;21563;-65
2023/03/07 17:34:36;;;;;;;;;;;;;;;1.72;100.00;99818.09;10460556;28;20008;-65
2023/03/07 17:39:38;;;;;;;;;;;;;;;1.72;100.00;99823.25;10459574;28;19925;-66
2023/03/07 17:44:41;;;;;;;;;;;;;;;1.65;100.00;99818.31;10459460;28;19925;-65
2023/03/07 17:49:43;;;;;;;;;;;;;;;1.68;100.00;99825.06;10460060;28;19931;-65
2023/03/07 17:54:47;;;;;;;;;;;;;;;1.63;100.00;99829.56;10460756;28;19924;-65
2023/03/07 17:59:50;;;;;;;;;;;;;;;1.83;100.00;99829.69;10459855;28;19925;-65
2023/03/07 18:04:52;;;;;;;;;;;;;;;1.72;100.00;99849.88;10460788;28;19928;-65
2023/03/07 18:09:54;;;;;;;;;;;;;;;1.79;100.00;99861.66;10459838;28;19979;-65
2023/03/07 18:15:11;;;;;;;;;;;;;;;1.70;100.00;99864.59;10460235;28;19978;-65
2023/03/07 18:20:13;;;;;;;;;;;;;;;1.33;100.00;99880.50;10442025;28;19932;-65
2023/03/07 18:25:16;;;;;;;;;;;;;;;1.54;100.00;99873.75;10459564;28;19924;-65
2023/03/07 18:30:18;;;;;;;;;;;;;;;1.56;100.00;99867.63;10441512;28;19931;-66
2023/03/07 18:35:22;;;;;;;;;;;;;;;1.52;100.00;99883.31;10458302;28;20376;-66
2023/03/07 18:40:25;;;;;;;;;;;;;;;1.45;100.00;99880.09;10441875;28;20332;-66
2023/03/07 18:45:27;;;;;;;;;;;;;;;1.33;100.00;99886.50;10451520;28;20380;-65
2023/03/07 18:50:29;;;;;;;;;;;;;;;1.26;100.00;99893.59;10429734;28;20347;-65
2023/03/07 18:55:34;;;;;;;;;;;;;;;1.52;100.00;99888.47;10420468;28;19931;-65
2023/03/07 19:00:36;;;;;;;;;;;;;;;1.67;100.00;99886.19;10454811;28;19929;-65
2023/03/07 19:05:43;;;;;;;;;;;;;;;1.44;100.00;99896.44;10458116;28;19925;-65
2023/03/07 19:10:45;;;;;;;;;;;;;;;1.40;100.00;99884.56;10455976;28;19925;-65
2023/03/07 19:15:47;;;;;;;;;;;;;;;1.18;100.00;99899.88;10456870;28;19971;-65
2023/03/07 19:20:49;;;;;;;;;;;;;;;1.45;100.00;99906.72;10457471;28;19925;-65
2023/03/07 19:25:51;;;;;;;;;;;;;;;1.45;100.00;99918.78;10438148;28;19929;-65
2023/03/07 19:30:54;;;;;;;;;;;;;;;1.52;100.00;99922.00;10435508;28;19929;-65
2023/03/07 19:36:00;;;;;;;;;;;;;;;1.30;100.00;99935.63;10456109;28;19925;-66
2023/03/07 19:41:03;;;;;;;;;;;;;;;1.27;100.00;99940.88;10437682;28;19925;-65
2023/03/07 19:46:06;;;;;;;;;;;;;;;1.38;100.00;99935.34;10438826;28;19925;-65
2023/03/07 19:51:12;;;;;;;;;;;;;;;1.35;100.00;99936.31;10436044;28;19925;-65
2023/03/07 19:56:19;;;;;;;;;;;;;;;1.04;100.00;99944.19;10417582;28;19929;-65
2023/03/07 20:01:21;;;;;;;;;;;;;;;1.07;100.00;99944.91;10452777;28;19925;-65
2023/03/07 20:06:25;;;;;;;;;;;;;;;1.02;100.00;99938.22;10456107;28;19985;-65
2023/03/07 20:11:31;;;;;;;;;;;;;;;0.99;100.00;99946.06;10454952;28;20430;-65
2023/03/07 20:16:33;;;;;;;;;;;;;;;0.83;100.00;99950.84;10450666;28;19928;-65
2023/03/07 20:21:36;;;;;;;;;;;;;;;1.20;100.00;99945.38;10461078;28;19925;-65
2023/03/07 20:26:39;;;;;;;;;;;;;;;0.87;100.00;99948.13;10464069;28;19983;-65
2023/03/07 20:31:41;;;;;;;;;;;;;;;0.65;100.00;99952.25;10463938;28;19924;-65
2023/03/07 20:36:44;;;;;;;;;;;;;;;0.49;100.00;99955.28;10445659;28;19948;-65
2023/03/07 20:41:46;;;;;;;;;;;;;;;0.64;100.00;99956.56;10446123;28;19932;-65
2023/03/07 20:46:48;;;;;;;;;;;;;;;0.53;100.00;99956.88;10462446;28;20295;-66
2023/03/07 20:51:50;;;;;;;;;;;;;;;0.50;100.00;99956.94;10463223;28;19924;-65
2023/03/07 20:56:53;;;;;;;;;;;;;;;0.26;100.00;99955.09;10462923;28;19925;-65
2023/03/07 21:01:55;;;;;;;;;;;;;;;0.45;100.00;99971.69;10444964;28;19929;-65
2023/03/07 21:06:58;;;;;;;;;;;;;;;0.43;100.00;99968.34;10461987;28;19975;-65
2023/03/07 21:12:00;;;;;;;;;;;;;;;0.43;100.00;99965.75;10462450;28;19925;-65
2023/03/07 21:17:02;;;;;;;;;;;;;;;0.41;100.00;99964.97;10462017;28;19930;-65
2023/03/07 21:22:05;;;;;;;;;;;;;;;0.30;100.00;99965.28;10461463;28;20257;-65
2023/03/07 21:27:07;;;;;;;;;;;;;;;0.39;100.00;99965.88;10460793;28;19925;-65
2023/03/07 21:32:09;;;;;;;;;;;;;;;0.27;100.00;99974.78;10460722;28;19932;-65
2023/03/07 21:37:11;;;;;;;;;;;;;;;0.01;100.00;99978.94;10460465;28;19924;-65
2023/03/07 21:42:14;;;;;;;;;;;;;;;-0.03;100.00;99983.34;10460840;28;19928;-65
2023/03/07 21:47:18;;;;;;;;;;;;;;;-0.06;100.00;99996.28;10461184;28;19929;-65
2023/03/07 21:52:21;;;;;;;;;;;;;;;-0.09;100.00;100003.25;10453853;28;19943;-65
2023/03/07 21:57:23;;;;;;;;;;;;;;;-0.04;100.00;100001.38;10419750;28;19971;-65
2023/03/07 22:02:25;;;;;;;;;;;;;;;-0.05;100.00;99999.69;10402027;28;19932;-65
2023/03/07 22:07:27;;;;;;;;;;;;;;;-0.17;100.00;100020.59;10411666;28;19924;-66
2023/03/07 22:12:29;;;;;;;;;;;;;;;-0.02;100.00;100010.78;10456765;28;20330;-66
2023/03/07 22:17:32;;;;;;;;;;;;;;;-0.03;100.00;100011.63;10459237;28;19932;-66
2023/03/07 22:22:34;;;;;;;;;;;;;;;-0.05;100.00;100017.69;10459063;28;19929;-66
2023/03/07 22:27:37;;;;;;;;;;;;;;;-0.11;100.00;100010.16;10459879;28;20017;-66
2023/03/07 22:32:39;;;;;;;;;;;;;;;-0.26;100.00;100011.41;10459720;28;19925;-65
2023/03/07 22:37:41;;;;;;;;;;;;;;;-0.13;100.00;100017.91;10458602;28;19925;-66
2023/03/07 22:42:43;;;;;;;;;;;;;;;-0.14;100.00;100026.50;10458580;28;19929;-65
2023/03/07 22:47:45;;;;;;;;;;;;;;;-0.04;100.00;100024.53;10459218;28;19924;-65
2023/03/07 22:52:48;;;;;;;;;;;;;;;0.04;100.00;100017.47;10443829;28;19925;-65
2023/03/07 22:57:50;;;;;;;;;;;;;;;0.05;100.00;100015.72;10416955;28;19925;-65
2023/03/07 23:02:52;;;;;;;;;;;;;;;0.09;100.00;100025.06;10416751;28;19925;-66
2023/03/07 23:07:55;;;;;;;;;;;;;;;-0.13;100.00;100035.09;10416323;28;19929;-65
2023/03/07 23:12:57;;;;;;;;;;;;;;;-0.14;100.00;100038.53;10440595;28;19928;-65
2023/03/07 23:17:59;;;;;;;;;;;;;;;-0.22;100.00;100043.88;10458048;28;19932;-65
2023/03/07 23:23:01;;;;;;;;;;;;;;;-0.06;100.00;100041.75;10457297;28;20390;-65
2023/03/07 23:28:04;;;;;;;;;;;;;;;-0.11;100.00;100029.00;10457911;28;19974;-65
2023/03/07 23:33:06;;;;;;;;;;;;;;;-0.07;100.00;100029.78;10457056;28;19925;-65
2023/03/07 23:38:09;;;;;;;;;;;;;;;-0.03;100.00;100021.09;10456687;28;19929;-65
2023/03/07 23:43:12;;;;;;;;;;;;;;;-0.26;100.00;100019.94;10439916;28;19928;-65
2023/03/07 23:48:14;;;;;;;;;;;;;;;-0.32;100.00;100014.09;10439728;28;19974;-65
2023/03/07 23:53:16;;;;;;;;;;;;;;;-0.33;100.00;100017.59;10456920;28;19924;-66
2023/03/07 23:58:18;;;;;;;;;;;;;;;-0.38;100.00;100018.53;10465650;28;19955;-65
